RJTJ(METAR)
08/23 01:00
METAR RJTJ 221600Z VRB02KT 9999 FEW020 SCT150 BKN/// 26/22 Q1012 RMK
1CU020 4AC150 A2988=
戻る
トップページへ戻る
IMOC Co,.Ltd.